Terminal Aerodrome Forecast
Issued by NWS

Home | Current Version | Previous Version | Text Only | Print | Product List | Glossary On
Versions: 1 2 3 4 5 6 7 8 9 10 11 12 13 14 15 16 17 18 19 20 21 22 23 24 25 26 27 28 29
000
FTAK31 PAJN 251145 RRA
TAFAYA
TAF
PAYA 251145Z 2512/2612 00000KT P6SM BCFG FEW002
      TEMPO 2512/2515 1/2SM FZFG VV002
     FM251600 VRB03KT P6SM SKC
     FM260300 00000KT P6SM SCT200
      AMD LTD TO CLD VIS AND WIND=

USA.gov is the U.S. government's official web portal to all federal, state and local government web resources and services.